Time;durP1;ratioP1;P1;durP2;ratioP2;P2;SDS_P1;SDS_P2;PMS_P1;PMS_P2;Temp;Humidity;BMP_temperature;BMP_pressure;BME280_temperature;BME280_humidity;BME280_pressure;Samples;Min_cycle;Max_cycle;Signal;HPM_P1;HPM_P2
2022/12/31 00:02:56;;;;;;;;;;;;;;;10.57;100.00;95651.75;10473641;28;2639;-72
2022/12/31 00:08:00;;;;;;;;;;;;;;;10.63;100.00;95652.56;10477015;28;4756;-74
2022/12/31 00:13:03;;;;;;;;;;;;;;;10.61;100.00;95668.13;10477370;28;2561;-72
2022/12/31 00:18:06;;;;;;;;;;;;;;;10.70;100.00;95656.53;10483529;28;3177;-73
2022/12/31 00:23:09;;;;;;;;;;;;;;;10.68;100.00;95639.84;10485646;28;2635;-74
2022/12/31 00:28:13;;;;;;;;;;;;;;;10.96;100.00;95648.31;10485331;28;2679;-72
2022/12/31 00:33:16;;;;;;;;;;;;;;;10.97;100.00;95634.59;10480145;28;2573;-73
2022/12/31 00:38:19;;;;;;;;;;;;;;;10.79;100.00;95646.78;10474823;28;2748;-71
2022/12/31 00:43:22;;;;;;;;;;;;;;;10.90;100.00;95650.25;10478781;28;2577;-72
2022/12/31 00:48:25;;;;;;;;;;;;;;;11.04;100.00;95655.78;10491293;28;2622;-75
2022/12/31 00:53:28;;;;;;;;;;;;;;;11.11;100.00;95661.66;10479900;28;2635;-75
2022/12/31 00:58:31;;;;;;;;;;;;;;;10.99;100.00;95682.72;10482077;28;2601;-72
2022/12/31 01:03:34;;;;;;;;;;;;;;;11.29;100.00;95682.53;10479880;28;2568;-73
2022/12/31 01:08:38;;;;;;;;;;;;;;;11.50;100.00;95677.00;10477656;28;4922;-74
2022/12/31 01:13:41;;;;;;;;;;;;;;;11.40;100.00;95704.00;10484500;28;2640;-71
2022/12/31 01:18:44;;;;;;;;;;;;;;;11.59;100.00;95710.31;10484668;28;2640;-72
2022/12/31 01:23:49;;;;;;;;;;;;;;;11.55;100.00;95718.13;10483783;28;2612;-72
2022/12/31 01:28:52;;;;;;;;;;;;;;;11.70;100.00;95719.91;10478606;28;2730;-71
2022/12/31 01:33:55;;;;;;;;;;;;;;;11.77;100.00;95733.88;10478665;28;2713;-74
2022/12/31 01:38:58;;;;;;;;;;;;;;;11.82;100.00;95741.91;10480344;28;2582;-73
2022/12/31 01:44:01;;;;;;;;;;;;;;;11.83;100.00;95743.53;10482753;28;2605;-73
2022/12/31 01:49:04;;;;;;;;;;;12.80;99.90;;;11.81;100.00;95751.09;10479232;28;2609;-72
2022/12/31 01:54:06;;;;;;;;;;;12.80;99.90;;;11.80;100.00;95748.66;10480900;28;2630;-72
2022/12/31 01:59:09;;;;;;;;;;;12.90;99.90;;;11.84;100.00;95755.91;10478861;28;2621;-73
2022/12/31 02:04:12;;;;;;;;;;;12.80;99.90;;;11.84;100.00;95753.22;10482587;28;2595;-73
2022/12/31 02:09:14;;;;;;;;;;;12.90;99.90;;;11.79;100.00;95750.53;10484041;28;4883;-72
2022/12/31 02:14:17;;;;;;;;;;;12.80;99.90;;;11.69;100.00;95756.00;10488406;28;2630;-71
2022/12/31 02:19:19;;;;;;;;;;;12.80;99.90;;;11.70;100.00;95754.91;10492583;28;2604;-72
2022/12/31 02:24:22;;;;;;;;;;;12.70;99.90;;;11.68;100.00;95746.31;10483206;28;2607;-74
2022/12/31 02:29:25;;;;;;;;;;;12.80;99.90;;;11.74;100.00;95739.81;10486930;28;2601;-72
2022/12/31 02:34:27;;;;;;;;;;;12.70;99.90;;;11.83;100.00;95746.25;10484771;28;2636;-72
2022/12/31 02:39:30;;;;;;;;;;;12.90;99.90;;;11.79;100.00;95745.16;10490648;28;2590;-73
2022/12/31 02:44:33;;;;;;;;;;;12.80;99.90;;;11.82;100.00;95752.69;10487115;28;2580;-73
2022/12/31 02:49:35;;;;;;;;;;;12.90;99.90;;;11.89;100.00;95747.78;10490343;28;2631;-73
2022/12/31 02:54:38;;;;;;;;;;;12.90;99.90;;;12.05;100.00;95747.66;10484070;28;2608;-72
2022/12/31 03:05:01;;;;;;;;;;;13.10;99.90;;;12.14;100.00;95745.94;10485937;28;2566;-71
2022/12/31 03:10:04;;;;;;;;;;;13.10;99.90;;;12.11;100.00;95754.63;10477688;28;4970;-73
2022/12/31 03:15:18;;;;;;;;;;;13.10;99.90;;;12.17;100.00;95758.88;10486345;28;2633;-72
2022/12/31 03:25:41;;;;;;;;;;;13.30;99.90;;;12.42;100.00;95771.31;10485121;28;2695;-72
2022/12/31 03:30:44;;;;;;;;;;;13.30;99.90;;;12.38;100.00;95771.06;10482813;28;2580;-72
2022/12/31 03:35:47;;;;;;;;;;;13.30;99.90;;;12.34;100.00;95779.97;10482746;28;2568;-72
2022/12/31 03:40:49;;;;;;;;;;;13.30;99.90;;;12.41;100.00;95777.78;10485265;28;2779;-75
2022/12/31 03:45:52;;;;;;;;;;;13.40;99.90;;;12.53;100.00;95780.06;10476352;28;2660;-75
2022/12/31 03:50:55;;;;;;;;;;;13.50;99.90;;;12.46;100.00;95777.72;10485711;28;2596;-74
2022/12/31 03:55:57;;;;;;;;;;;13.40;99.90;;;12.49;100.00;95787.13;10490001;28;2609;-72
2022/12/31 04:01:00;;;;;;;;;;;13.50;99.90;;;12.61;100.00;95782.16;10483637;28;2740;-72
2022/12/31 04:06:03;;;;;;;;;;;;;;;12.68;100.00;95785.31;10483491;28;5089;-72
2022/12/31 04:11:06;;;;;;;;;;;13.40;99.90;;;12.84;100.00;95800.22;10484937;28;2548;-72
2022/12/31 04:16:09;;;;;;;;;;;;;;;12.85;100.00;95801.03;10491365;28;2558;-72
2022/12/31 04:21:12;;;;;;;;;;;13.80;99.90;;;12.78;100.00;95816.75;10486873;28;2643;-73
2022/12/31 04:26:14;;;;;;;;;;;13.80;99.90;;;12.91;100.00;95822.28;10491218;28;2641;-72
2022/12/31 04:31:17;;;;;;;;;;;13.40;99.90;;;13.06;100.00;95837.50;10486008;28;2562;-76
2022/12/31 04:36:20;;;;;;;;;;;14.00;99.90;;;13.07;100.00;95831.00;10476288;28;2755;-73
2022/12/31 04:41:25;;;;;;;;;;;14.00;99.90;;;13.01;100.00;95821.38;10487159;28;2575;-72
2022/12/31 04:46:28;;;;;;;;;;;14.00;99.90;;;12.92;100.00;95832.00;10476989;28;2926;-72
2022/12/31 04:51:31;;;;;;;;;;;13.90;99.90;;;12.91;100.00;95838.47;10488988;28;2593;-72
2022/12/31 04:56:35;;;;;;;;;;;13.90;99.90;;;12.96;100.00;95843.00;10481736;28;2609;-72
2022/12/31 05:01:38;;;;;;;;;;;14.00;99.90;;;13.15;100.00;95845.75;10482677;28;2639;-73
2022/12/31 05:06:41;;;;;;;;;;;14.00;99.90;;;13.25;100.00;95840.28;10483472;28;2587;-72
2022/12/31 05:11:44;;;;;;;;;;;14.10;99.90;;;13.29;100.00;95844.00;10460383;28;2588;-73
2022/12/31 05:16:46;;;;;;;;;;;14.20;99.90;;;13.28;100.00;95850.50;10471589;28;2631;-72
2022/12/31 05:27:05;;;;;;;;;;;14.20;99.90;;;13.29;100.00;95854.78;10478892;28;2533;-72
2022/12/31 05:32:08;;;;;;;;;;;14.20;99.90;;;13.32;100.00;95858.81;10461045;28;2561;-73
2022/12/31 05:37:11;;;;;;;;;;;14.30;99.90;;;13.26;100.00;95860.78;10477759;28;2631;-71
2022/12/31 05:42:13;;;;;;;;;;;14.30;99.90;;;13.25;100.00;95856.47;10481215;28;2664;-72
2022/12/31 05:47:16;;;;;;;;;;;14.20;99.90;;;13.14;100.00;95852.25;10478432;28;2617;-74
2022/12/31 05:52:19;;;;;;;;;;;14.20;99.90;;;12.91;100.00;95846.53;10492916;28;2631;-71
2022/12/31 05:57:22;;;;;;;;;;;14.00;99.90;;;12.69;100.00;95854.34;10490277;28;2589;-71
2022/12/31 06:02:24;;;;;;;;;;;13.90;99.90;;;12.69;100.00;95843.56;10490823;28;2843;-71
2022/12/31 06:07:27;;;;;;;;;;;13.70;99.90;;;12.69;100.00;95855.16;10487197;28;4886;-72
2022/12/31 06:12:30;;;;;;;;;;;13.70;99.90;;;12.60;100.00;95856.06;10490560;28;2593;-71
2022/12/31 06:17:32;;;;;;;;;;;13.70;99.90;;;12.48;100.00;95869.13;10483486;28;2621;-72
2022/12/31 06:22:35;;;;;;;;;;;13.60;99.90;;;12.35;100.00;95874.06;10481373;28;2603;-73
2022/12/31 06:27:38;;;;;;;;;;;13.50;99.90;;;12.35;100.00;95879.47;10484529;28;2551;-73
2022/12/31 06:32:41;;;;;;;;;;;13.30;99.90;;;12.24;100.00;95883.31;10486938;28;2668;-73
2022/12/31 06:37:43;;;;;;;;;;;13.30;99.90;;;12.35;100.00;95894.84;10483616;28;2637;-72
2022/12/31 06:42:46;;;;;;;;;;;13.30;99.90;;;12.41;100.00;95899.09;10490931;28;2574;-72
2022/12/31 06:47:49;;;;;;;;;;;13.30;99.90;;;12.49;100.00;95903.88;10486151;28;2587;-73
2022/12/31 06:52:51;;;;;;;;;;;13.40;99.90;;;12.44;100.00;95883.16;10496004;28;2651;-71
2022/12/31 06:57:54;;;;;;;;;;;13.40;99.90;;;12.47;100.00;95889.06;10488699;28;2740;-72
2022/12/31 07:02:57;;;;;;;;;;;13.50;99.90;;;12.31;100.00;95894.56;10492387;28;2722;-72
2022/12/31 07:08:00;;;;;;;;;;;13.40;99.90;;;12.50;100.00;95899.28;10488876;28;5139;-73
2022/12/31 07:13:02;;;;;;;;;;;13.40;99.90;;;12.54;100.00;95913.81;10470198;28;2548;-78
2022/12/31 07:18:05;;;;;;;;;;;13.40;99.90;;;12.53;100.00;95913.00;10491325;28;2600;-71
2022/12/31 07:23:08;;;;;;;;;;;13.50;99.90;;;12.34;100.00;95920.16;10482198;28;3004;-71
2022/12/31 07:28:10;;;;;;;;;;;13.20;99.90;;;12.45;100.00;95921.69;10487767;28;2685;-73
2022/12/31 07:33:13;;;;;;;;;;;13.40;99.90;;;12.38;100.00;95927.41;10487263;28;2681;-76
2022/12/31 07:38:15;;;;;;;;;;;13.40;99.90;;;12.39;100.00;95939.78;10484698;28;2643;-72
2022/12/31 07:43:18;;;;;;;;;;;13.40;99.90;;;12.43;100.00;95946.25;10491629;28;2624;-71
2022/12/31 07:48:21;;;;;;;;;;;13.30;99.90;;;12.36;100.00;95955.75;10479823;28;2660;-71
2022/12/31 07:53:23;;;;;;;;;;;13.30;99.90;;;12.38;100.00;95959.75;10487119;28;2608;-74
2022/12/31 07:58:26;;;;;;;;;;;13.30;99.90;;;12.34;100.00;95953.34;10488782;28;2684;-72
2022/12/31 08:03:28;;;;;;;;;;;13.30;99.90;;;12.45;100.00;95967.53;10485538;28;2619;-73
2022/12/31 08:08:31;;;;;;;;;;;13.40;99.90;;;12.47;100.00;95967.25;10477185;28;4998;-74
2022/12/31 08:13:34;;;;;;;;;;;13.40;99.90;;;12.47;100.00;95978.84;10481914;28;2748;-74
2022/12/31 08:18:37;;;;;;;;;;;13.40;99.90;;;12.56;100.00;95976.34;10482085;28;2636;-69
2022/12/31 08:23:40;;;;;;;;;;;13.40;99.90;;;12.66;100.00;95977.09;10485693;28;2596;-76
2022/12/31 08:28:43;;;;;;;;;;;13.60;99.90;;;12.54;100.00;95975.84;10478649;28;2628;-76
2022/12/31 08:33:45;;;;;;;;;;;13.60;99.90;;;12.50;100.00;95972.09;10483118;28;2612;-72
2022/12/31 08:38:48;;;;;;;;;;;13.50;99.90;;;12.71;100.00;95963.53;10482895;28;2651;-73
2022/12/31 08:43:51;;;;;;;;;;;13.50;99.90;;;12.62;100.00;95961.75;10481218;28;2647;-71
2022/12/31 08:48:53;;;;;;;;;;;13.60;99.90;;;12.45;100.00;95962.13;10486212;28;2585;-72
2022/12/31 08:53:56;;;;;;;;;;;13.50;99.90;;;12.70;100.00;95958.44;10482712;28;2616;-73
2022/12/31 08:58:59;;;;;;;;;;;13.50;99.90;;;13.23;100.00;95964.75;10476430;28;2962;-73
2022/12/31 09:04:01;;;;;;;;;;;13.80;99.90;;;13.61;100.00;95967.56;10471591;28;2624;-73
2022/12/31 09:09:04;;;;;;;;;;;14.30;99.90;;;13.84;100.00;95978.66;10481527;28;5049;-71
2022/12/31 09:14:08;;;;;;;;;;;14.40;99.90;;;13.97;100.00;95973.34;10484456;28;2690;-73
2022/12/31 09:19:11;;;;;;;;;;;14.70;99.90;;;14.15;100.00;95984.47;10472997;28;2734;-74
2022/12/31 09:24:13;;;;;;;;;;;14.80;99.90;;;14.16;100.00;95988.78;10472151;28;2631;-73
2022/12/31 09:29:16;;;;;;;;;;;14.90;99.90;;;14.34;100.00;95982.59;10479744;28;2633;-72
2022/12/31 09:34:18;;;;;;;;;;;15.00;99.90;;;14.43;100.00;95980.81;10484947;28;2652;-72
2022/12/31 09:39:21;;;;;;;;;;;15.30;99.90;;;14.70;100.00;95990.22;10477570;28;2597;-74
2022/12/31 09:44:24;;;;;;;;;;;;;;;14.87;100.00;95969.63;10480509;28;2588;-71
2022/12/31 09:49:27;;;;;;;;;;;15.50;99.90;;;15.03;100.00;95966.66;10490831;28;2580;-73
2022/12/31 09:54:30;;;;;;;;;;;15.70;99.90;;;15.11;100.00;95969.50;10484000;28;2640;-74
2022/12/31 09:59:33;;;;;;;;;;;15.90;99.90;;;15.24;100.00;95964.41;10476406;28;2961;-75
2022/12/31 10:04:35;;;;;;;;;;;16.00;99.90;;;15.53;99.22;95975.78;10471754;28;2582;-73
2022/12/31 10:09:38;;;;;;;;;;;16.10;99.90;;;15.72;97.54;95973.03;10460029;28;5074;-74
2022/12/31 10:14:41;;;;;;;;;;;;;;;15.96;93.74;95967.38;10474617;28;3166;-72
2022/12/31 10:19:49;;;;;;;;;;;16.60;99.90;;;16.09;92.03;95950.28;10479421;28;2731;-73
2022/12/31 10:24:52;;;;;;;;;;;16.70;99.90;;;16.31;87.37;95956.88;10480642;28;2641;-73
2022/12/31 10:29:56;;;;;;;;;;;16.90;99.90;;;16.40;84.55;95946.88;10475380;28;2522;-73
2022/12/31 10:34:59;;;;;;;;;;;17.70;99.90;;;16.36;85.48;95940.50;10488165;28;2627;-71
2022/12/31 10:40:02;;;;;;;;;;;17.10;99.90;;;16.32;85.69;95936.78;10480550;28;2556;-76
2022/12/31 10:45:04;;;;;;;;;;;17.10;99.90;;;16.34;85.93;95929.91;10489197;28;2705;-76
2022/12/31 10:50:07;;;;;;;;;;;17.20;99.90;;;16.42;84.18;95931.94;10487429;28;2567;-72
2022/12/31 10:55:09;;;;;;;;;;;17.20;99.90;;;16.43;84.05;95935.44;10486454;28;2597;-71
2022/12/31 11:00:12;;;;;;;;;;;17.30;99.90;;;16.41;84.11;95934.91;10475895;28;2912;-73
2022/12/31 11:05:15;;;;;;;;;;;17.20;99.90;;;16.40;83.63;95927.91;10483811;28;2801;-73
2022/12/31 11:10:18;;;;;;;;;;;17.30;99.90;;;16.45;83.74;95920.44;10486195;28;5116;-72
2022/12/31 11:15:20;;;;;;;;;;;17.30;99.90;;;16.62;82.85;95922.50;10484368;28;2989;-72
2022/12/31 11:20:23;;;;;;;;;;;17.40;99.90;;;16.63;81.10;95926.81;10488268;28;2577;-74
2022/12/31 11:25:26;;;;;;;;;;;18.60;99.90;;;16.69;81.86;95919.34;10491035;28;2567;-75
2022/12/31 11:30:28;;;;;;;;;;;17.50;99.90;;;16.90;80.18;95916.97;10483315;28;2504;-73
2022/12/31 11:35:31;;;;;;;;;;;17.50;99.90;;;17.13;78.22;95907.69;10479624;28;2982;-73
2022/12/31 11:40:34;;;;;;;;;;;17.70;99.90;;;17.38;76.24;95903.47;10485023;28;2574;-73
2022/12/31 11:45:36;;;;;;;;;;;17.90;99.90;;;17.62;74.06;95900.34;10478218;28;2592;-73
2022/12/31 11:50:39;;;;;;;;;;;18.20;99.90;;;17.87;73.55;95884.44;10482058;28;2621;-72
2022/12/31 11:55:42;;;;;;;;;;;18.40;99.90;;;18.02;72.18;95884.00;10489608;28;2933;-74
2022/12/31 12:00:44;;;;;;;;;;;18.60;99.90;;;18.01;72.68;95876.97;10480364;28;2564;-75
2022/12/31 12:05:47;;;;;;;;;;;18.70;99.90;;;17.98;72.99;95883.03;10465606;28;5100;-73
2022/12/31 12:10:50;;;;;;;;;;;18.70;99.90;;;17.82;74.47;95869.91;10477846;28;3014;-74
2022/12/31 12:15:52;;;;;;;;;;;18.60;99.90;;;17.75;73.94;95866.84;10481537;28;2955;-72
2022/12/31 12:20:55;;;;;;;;;;;18.50;99.90;;;17.71;73.15;95862.31;10474575;28;2913;-72
2022/12/31 12:25:58;;;;;;;;;;;18.50;99.90;;;17.80;71.67;95871.31;10486257;28;2990;-75
2022/12/31 12:31:01;;;;;;;;;;;18.50;99.90;;;17.78;72.53;95877.09;10485712;28;3045;-73
2022/12/31 12:36:03;;;;;;;;;;;18.50;99.90;;;17.77;72.05;95872.75;10490673;28;3003;-75
2022/12/31 12:41:06;;;;;;;;;;;18.50;99.90;;;17.82;71.41;95869.09;10490812;28;3070;-75
2022/12/31 12:46:09;;;;;;;;;;;18.50;99.90;;;17.86;74.29;95874.69;10476751;28;2877;-72
2022/12/31 12:51:11;;;;;;;;;;;18.60;99.90;;;17.89;75.45;95868.63;10485918;28;3010;-75
2022/12/31 12:56:14;;;;;;;;;;;18.60;99.90;;;17.92;78.28;95867.97;10480823;28;3072;-77
2022/12/31 13:01:17;;;;;;;;;;;18.70;99.90;;;17.58;82.35;95868.69;10478992;28;2866;-77
2022/12/31 13:06:20;;;;;;;;;;;18.50;99.90;;;17.43;84.79;95875.34;10478445;28;4540;-76
2022/12/31 13:11:25;;;;;;;;;;;18.40;99.90;;;17.36;90.68;95877.72;10479615;28;2931;-76
2022/12/31 13:16:27;;;;;;;;;;;18.20;99.90;;;17.04;95.44;95874.22;10473543;28;2905;-75
2022/12/31 13:21:30;;;;;;;;;;;18.10;99.90;;;16.86;98.81;95869.81;10485672;28;2905;-77
2022/12/31 13:26:33;;;;;;;;;;;17.90;99.90;;;16.75;100.00;95861.16;10481324;28;2928;-77
2022/12/31 13:31:35;;;;;;;;;;;17.80;99.90;;;16.58;100.00;95861.00;10483150;28;2914;-78
2022/12/31 13:36:38;;;;;;;;;;;17.60;99.90;;;16.55;100.00;95853.50;10485149;28;2945;-77
2022/12/31 13:41:41;;;;;;;;;;;17.50;99.90;;;16.39;100.00;95864.69;10477886;28;2936;-77
2022/12/31 13:46:44;;;;;;;;;;;17.40;99.90;;;16.17;100.00;95864.69;10477956;28;2854;-77
2022/12/31 13:51:46;;;;;;;;;;;17.30;99.90;;;16.07;100.00;95865.72;10489681;28;2916;-76
2022/12/31 13:56:49;;;;;;;;;;;17.10;99.90;;;16.11;100.00;95861.31;10485327;28;2944;-76
2022/12/31 14:01:52;;;;;;;;;;;17.10;99.90;;;16.04;100.00;95866.34;10476802;28;2926;-77
2022/12/31 14:06:55;;;;;;;;;;;17.10;99.90;;;15.93;100.00;95859.53;10486925;28;2972;-78
2022/12/31 14:11:57;;;;;;;;;;;17.00;99.90;;;15.72;100.00;95874.66;10490728;28;2859;-77
2022/12/31 14:17:00;;;;;;;;;;;16.80;99.90;;;15.62;100.00;95873.75;10492539;28;2958;-77
2022/12/31 14:22:03;;;;;;;;;;;16.70;99.90;;;15.64;100.00;95882.38;10493199;28;2834;-77
2022/12/31 14:27:05;;;;;;;;;;;16.60;99.90;;;15.46;100.00;95888.69;10486616;28;2865;-78
2022/12/31 14:32:08;;;;;;;;;;;16.60;99.90;;;15.23;100.00;95895.91;10488111;28;2859;-75
2022/12/31 14:37:11;;;;;;;;;;;16.40;99.90;;;15.06;100.00;95890.25;10481705;28;2804;-76
2022/12/31 14:42:14;;;;;;;;;;;16.20;99.90;;;14.89;100.00;95907.09;10477662;28;3278;-76
2022/12/31 14:47:16;;;;;;;;;;;16.10;99.90;;;14.72;100.00;95913.06;10488868;28;2870;-74
2022/12/31 14:52:20;;;;;;;;;;;15.90;99.90;;;14.55;100.00;95924.41;10491500;28;2846;-75
2022/12/31 14:57:23;;;;;;;;;;;15.80;99.90;;;14.43;100.00;95928.63;10474241;28;2965;-73
2022/12/31 15:02:25;;;;;;;;;;;15.60;99.90;;;14.22;100.00;95920.03;10489776;28;3263;-77
2022/12/31 15:07:28;;;;;;;;;;;15.40;99.90;;;14.06;100.00;95932.97;10486602;28;4391;-75
2022/12/31 15:12:31;;;;;;;;;;;15.30;99.90;;;13.82;100.00;95916.00;10492466;28;2955;-76
2022/12/31 15:17:33;;;;;;;;;;;15.10;99.90;;;13.62;100.00;95915.16;10487433;28;2868;-76
2022/12/31 15:22:36;;;;;;;;;;;14.90;99.90;;;13.30;100.00;95920.41;10491228;28;3049;-72
2022/12/31 15:27:41;;;;;;;;;;;14.70;99.90;;;13.09;100.00;95925.97;10502082;28;2854;-74
2022/12/31 15:32:43;;;;;;;;;;;14.50;99.90;;;12.85;100.00;95931.34;10481201;28;2832;-74
2022/12/31 15:37:46;;;;;;;;;;;14.20;99.90;;;12.63;100.00;95944.47;10467854;28;2874;-76
2022/12/31 15:42:49;;;;;;;;;;;14.00;99.90;;;12.50;100.00;95947.81;10480118;28;2982;-73
2022/12/31 15:47:52;;;;;;;;;;;13.90;99.90;;;12.46;100.00;95942.16;10480275;28;2950;-73
2022/12/31 15:52:54;;;;;;;;;;;13.80;99.90;;;12.26;100.00;95934.22;10490043;28;2929;-73
2022/12/31 15:57:57;;;;;;;;;;;13.60;99.90;;;12.26;100.00;95934.22;10481552;28;2913;-73
2022/12/31 16:03:00;;;;;;;;;;;13.50;99.90;;;12.16;100.00;95944.00;10481677;28;2861;-74
2022/12/31 16:08:03;;;;;;;;;;;13.40;99.90;;;12.00;100.00;95947.06;10479006;28;4486;-74
2022/12/31 16:13:05;;;;;;;;;;;13.30;99.90;;;11.87;100.00;95945.78;10481505;28;2971;-73
2022/12/31 16:18:08;;;;;;;;;;;13.20;99.90;;;11.80;100.00;95948.75;10483258;28;2915;-72
2022/12/31 16:23:10;;;;;;;;;;;13.10;99.90;;;11.77;100.00;95948.47;10485980;28;2882;-73
2022/12/31 16:28:13;;;;;;;;;;;13.00;99.90;;;11.77;100.00;95949.31;10485504;28;2883;-74
2022/12/31 16:33:16;;;;;;;;;;;13.00;99.90;;;11.83;100.00;95950.09;10486606;28;3016;-76
2022/12/31 16:38:18;;;;;;;;;;;13.00;99.90;;;11.67;100.00;95943.97;10473242;28;3009;-77
2022/12/31 16:43:21;;;;;;;;;;;12.90;99.90;;;11.58;100.00;95946.44;10468187;28;2878;-77
2022/12/31 16:48:24;;;;;;;;;;;12.80;99.90;;;11.73;100.00;95934.78;10482950;28;2854;-75
2022/12/31 16:53:26;;;;;;;;;;;12.80;99.90;;;11.60;100.00;95940.75;10484402;28;2861;-74
2022/12/31 16:58:29;;;;;;;;;;;12.70;99.90;;;11.52;100.00;95944.03;10483126;28;3329;-75
2022/12/31 17:03:32;;;;;;;;;;;12.70;99.90;;;11.49;100.00;95945.38;10482446;28;2856;-76
2022/12/31 17:08:34;;;;;;;;;;;12.60;99.90;;;11.30;100.00;95957.81;10479282;28;4626;-75
2022/12/31 17:13:37;;;;;;;;;;;12.50;99.90;;;11.22;100.00;95956.50;10484805;28;2894;-76
2022/12/31 17:18:39;;;;;;;;;;;12.40;99.90;;;11.58;100.00;95940.25;10490161;28;2878;-74
2022/12/31 17:23:42;;;;;;;;;;;12.50;99.90;;;11.40;100.00;95944.34;10476044;28;2870;-75
2022/12/31 17:28:45;;;;;;;;;;;12.60;99.90;;;11.29;100.00;95937.38;10478151;28;2918;-72
2022/12/31 17:33:47;;;;;;;;;;;12.40;99.90;;;11.17;100.00;95943.03;10477441;28;2890;-73
2022/12/31 17:38:50;;;;;;;;;;;12.40;99.90;;;11.21;100.00;95935.25;10472614;28;2972;-74
2022/12/31 17:43:53;;;;;;;;;;;12.30;99.90;;;11.13;100.00;95922.34;10482665;28;2850;-75
2022/12/31 17:48:55;;;;;;;;;;;12.30;99.90;;;11.08;100.00;95931.25;10484138;28;2933;-77
2022/12/31 17:53:58;;;;;;;;;;;12.20;99.90;;;11.15;100.00;95934.44;10455499;28;2967;-73
2022/12/31 17:59:01;;;;;;;;;;;12.20;99.90;;;10.96;100.00;95947.66;10474389;28;2922;-74
2022/12/31 18:04:03;;;;;;;;;;;12.10;99.90;;;11.04;100.00;95938.25;10478362;28;3057;-73
2022/12/31 18:09:06;;;;;;;;;;;12.10;99.90;;;10.82;100.00;95931.28;10479263;28;4486;-73
2022/12/31 18:14:09;;;;;;;;;;;11.70;99.90;;;10.99;100.00;95927.47;10478156;28;2974;-73
2022/12/31 18:19:12;;;;;;;;;;;12.00;99.90;;;11.01;100.00;95919.97;10487466;28;2858;-73
2022/12/31 18:24:32;;;;;;;;;;;12.00;99.90;;;10.98;100.00;95925.88;10485622;28;3046;-73
2022/12/31 18:29:35;;;;;;;;;;;12.00;99.90;;;10.85;100.00;95935.31;10482389;28;2950;-73
2022/12/31 18:34:37;;;;;;;;;;;12.00;99.90;;;10.78;100.00;95938.28;10468944;28;2821;-71
2022/12/31 18:39:40;;;;;;;;;;;11.90;99.90;;;10.73;100.00;95940.97;10469069;28;2907;-74
2022/12/31 18:44:43;;;;;;;;;;;11.80;99.90;;;10.56;100.00;95940.44;10478689;28;2959;-73
2022/12/31 18:49:47;;;;;;;;;;;11.70;99.90;;;10.57;100.00;95943.94;10487310;28;2981;-72
2022/12/31 18:54:50;;;;;;;;;;;11.70;99.90;;;10.78;100.00;95943.66;10485467;28;2869;-74
2022/12/31 18:59:54;;;;;;;;;;;11.70;99.90;;;10.87;100.00;95943.91;10486246;28;2906;-73
2022/12/31 19:04:57;;;;;;;;;;;11.90;99.90;;;10.67;100.00;95942.03;10483331;28;2962;-72
2022/12/31 19:10:00;;;;;;;;;;;11.80;99.90;;;10.68;100.00;95946.34;10478990;28;4485;-72
2022/12/31 19:15:03;;;;;;;;;;;11.80;99.90;;;10.54;100.00;95953.34;10482127;28;2932;-73
2022/12/31 19:20:05;;;;;;;;;;;11.70;99.90;;;11.10;100.00;95988.25;10488276;28;2854;-76
2022/12/31 19:25:08;;;;;;;;;;;11.90;99.90;;;10.97;100.00;95984.25;10483107;28;2904;-73
2022/12/31 19:30:11;;;;;;;;;;;12.00;99.90;;;10.79;100.00;95987.47;10485644;28;2847;-74
2022/12/31 19:35:14;;;;;;;;;;;12.00;99.90;;;10.75;100.00;96008.75;10484324;28;2788;-71
2022/12/31 19:40:16;;;;;;;;;;;11.90;99.90;;;10.62;100.00;96021.88;10483465;28;2849;-76
2022/12/31 19:45:19;;;;;;;;;;;11.80;99.90;;;10.43;100.00;96025.09;10488802;28;2859;-76
2022/12/31 19:50:22;;;;;;;;;;;11.70;99.90;;;10.28;100.00;96025.06;10476516;28;3279;-75
2022/12/31 19:55:25;;;;;;;;;;;11.50;99.90;;;10.16;100.00;96022.56;10481195;28;2842;-75
2022/12/31 20:00:27;;;;;;;;;;;11.40;99.90;;;9.99;100.00;96022.81;10478023;28;2910;-74
2022/12/31 20:05:30;;;;;;;;;;;11.20;99.90;;;9.92;100.00;96026.78;10486521;28;4451;-75
2022/12/31 20:10:33;;;;;;;;;;;11.10;99.90;;;9.88;100.00;96023.03;10474408;28;2848;-74
2022/12/31 20:15:35;;;;;;;;;;;11.00;99.90;;;9.90;100.00;96031.63;10480152;28;2867;-74
2022/12/31 20:20:38;;;;;;;;;;;11.00;99.90;;;9.91;100.00;96043.97;10485733;28;3000;-76
2022/12/31 20:25:40;;;;;;;;;;;11.00;99.90;;;9.96;100.00;96044.00;10483659;28;2922;-75
2022/12/31 20:30:43;;;;;;;;;;;11.00;99.90;;;9.82;100.00;96045.56;10478792;28;2917;-78
2022/12/31 20:35:46;;;;;;;;;;;11.00;99.90;;;9.85;100.00;96051.19;10484937;28;2927;-74
2022/12/31 20:40:48;;;;;;;;;;;10.90;99.90;;;9.77;100.00;96050.91;10477861;28;2948;-74
2022/12/31 20:45:51;;;;;;;;;;;10.90;99.90;;;9.57;100.00;96051.59;10482362;28;2880;-76
2022/12/31 20:50:54;;;;;;;;;;;10.90;99.90;;;9.46;100.00;96053.41;10484830;28;2904;-75
2022/12/31 20:55:57;;;;;;;;;;;10.70;99.90;;;9.48;100.00;96054.78;10480200;28;2898;-75
2022/12/31 21:00:59;;;;;;;;;;;10.60;99.90;;;9.48;100.00;96053.97;10482165;28;2872;-74
2022/12/31 21:06:02;;;;;;;;;;;10.60;99.90;;;9.43;100.00;96040.53;10479371;28;4470;-73
2022/12/31 21:12:41;;;;;;;;;;;10.60;99.90;;;9.44;100.00;96039.44;10481334;28;3043;-77
2022/12/31 21:16:28;;;;;;;;;;;10.60;99.90;;;9.53;100.00;96029.03;10478559;28;2909;-76
2022/12/31 21:21:30;;;;;;;;;;;10.60;99.90;;;9.60;100.00;96033.09;10485747;28;2956;-75
2022/12/31 21:26:34;;;;;;;;;;;10.60;99.90;;;9.66;100.00;96029.34;10484394;28;2961;-74
2022/12/31 21:31:36;;;;;;;;;;;10.70;99.90;;;9.63;100.00;96035.25;10475592;28;2917;-73
2022/12/31 21:36:39;;;;;;;;;;;10.70;99.90;;;9.59;100.00;96038.72;10483637;28;2925;-74
2022/12/31 21:41:51;;;;;;;;;;;10.70;99.90;;;9.59;100.00;96055.63;10481996;28;3028;-74
2022/12/31 21:46:54;;;;;;;;;;;10.80;99.90;;;9.51;100.00;96047.28;10473255;28;2837;-73
2022/12/31 21:52:25;;;;;;;;;;;10.60;99.90;;;9.43;100.00;96045.88;10477974;28;2851;-74
2022/12/31 21:57:28;;;;;;;;;;;10.60;99.90;;;9.31;100.00;96048.75;10478378;28;2865;-76
2022/12/31 22:08:01;;;;;;;;;;;10.50;99.90;;;9.47;100.00;96053.13;10474070;28;4418;-74
2022/12/31 22:13:04;;;;;;;;;;;10.50;99.90;;;9.68;100.00;96032.59;10475489;28;2990;-74
2022/12/31 22:18:06;;;;;;;;;;;10.70;99.90;;;9.58;100.00;96032.53;10479302;28;2970;-74
2022/12/31 22:23:09;;;;;;;;;;;10.70;99.90;;;9.50;100.00;96049.16;10480615;28;3035;-74
2022/12/31 22:28:12;;;;;;;;;;;10.70;99.90;;;9.50;100.00;96046.47;10479241;28;2866;-76
2022/12/31 22:33:34;;;;;;;;;;;10.70;99.90;;;9.40;100.00;96041.84;10482318;28;2933;-74
2022/12/31 22:38:37;;;;;;;;;;;10.60;99.90;;;9.25;100.00;96039.06;10484537;28;3333;-75
2022/12/31 22:43:40;;;;;;;;;;;10.50;99.90;;;9.15;100.00;96044.34;10488113;28;3071;-75
2022/12/31 22:48:42;;;;;;;;;;;10.40;99.90;;;9.24;100.00;96042.00;10493273;28;2861;-74
2022/12/31 22:53:45;;;;;;;;;;;10.40;99.90;;;9.16;100.00;96041.44;10477518;28;2930;-74
2022/12/31 22:58:48;;;;;;;;;;;10.30;99.90;;;9.28;100.00;96043.09;10481419;28;2925;-73
2022/12/31 23:03:51;;;;;;;;;;;10.30;99.90;;;9.34;100.00;96052.78;10475542;28;2981;-74
2022/12/31 23:24:55;;;;;;;;;;;10.60;99.90;;;9.59;100.00;96028.78;10480795;28;2797;-75
2022/12/31 23:29:58;;;;;;;;;;;10.60;99.90;;;9.48;100.00;96033.31;10485892;28;2913;-76
2022/12/31 23:35:00;;;;;;;;;;;10.60;99.90;;;9.70;100.00;96030.47;10477506;28;2929;-74
2022/12/31 23:40:11;;;;;;;;;;;10.70;99.90;;;9.65;100.00;96022.38;10478139;28;2928;-74
2022/12/31 23:45:22;;;;;;;;;;;10.70;99.90;;;9.84;100.00;96005.81;10476775;28;2917;-74
2022/12/31 23:50:32;;;;;;;;;;;10.80;99.90;;;9.95;100.00;96010.16;10491509;28;2863;-73
2022/12/31 23:55:35;;;;;;;;;;;10.90;99.90;;;10.25;100.00;95999.53;10497475;28;2890;-75
